Bates, Idaho
Current Conditions -  °F | °C
As of 11:56 AM on Friday 24 Oct 2014 (Local Time) from KDIJ Reporting Station
Overcast Overcast  
Wind Chill: 59°   Ceiling: 7000
Heat Index: 59°   Visibility: 10mi
Dew Point: 31°   Wind: 13mph
Humidity: 35%   Direction: 200°SSW
Pressure: 30.21"   Gusts: NA
Location:  43.7205°N, 111.251°W
Report Text: KDIJ 241756Z AUTO 20011KT 10SM FEW036 OVC070 15/M01 A3021 RMK AO2 50002 T01501005 10150 20077 SLP173
Loading
Personal Weather Stations






























Interactive Weather Map
Tropical Storm Tracking
New forecast layout! Learn more

10-Day Weather Forecast

Advertisements
Track Severe Weather on mobile